Time;durP1;ratioP1;P1;durP2;ratioP2;P2;SDS_P1;SDS_P2;PMS_P1;PMS_P2;Temp;Humidity;BMP_temperature;BMP_pressure;BME280_temperature;BME280_humidity;BME280_pressure;Samples;Min_cycle;Max_cycle;Signal;HPM_P1;HPM_P2
2022/07/30 00:02:51;;;;;;;;;;;;;;;16.88;100.00;95702.00;10432138;28;1981;-68
2022/07/30 00:07:54;;;;;;;;;;;;;;;16.97;100.00;95689.22;10407899;28;1891;-67
2022/07/30 00:12:58;;;;;;;;;;;;;;;16.97;100.00;95686.50;10411307;28;1863;-69
2022/07/30 00:18:01;;;;;;;;;;;;;;;17.02;100.00;95689.09;10416187;28;1958;-67
2022/07/30 00:23:05;;;;;;;;;;;;;;;17.06;100.00;95687.34;10403659;28;2329;-68
2022/07/30 00:28:09;;;;;;;;;;;;;;;17.19;100.00;95683.69;10409671;28;1881;-68
2022/07/30 00:33:12;;;;;;;;;;;;;;;17.10;100.00;95680.16;10407850;28;1864;-68
2022/07/30 00:38:16;;;;;;;;;;;;;;;17.09;100.00;95666.88;10405508;28;1988;-68
2022/07/30 00:43:21;;;;;;;;;;;;;;;17.19;100.00;95667.41;10409109;28;2028;-68
2022/07/30 00:48:24;;;;;;;;;;;;;;;17.28;100.00;95668.19;10413232;28;1917;-68
2022/07/30 00:53:28;;;;;;;;;;;;;;;17.27;100.00;95669.31;10407396;28;2025;-68
2022/07/30 00:58:32;;;;;;;;;;;;;;;17.28;100.00;95664.69;10413109;28;1949;-68
2022/07/30 01:03:36;;;;;;;;;;;;;;;17.35;100.00;95664.19;10404280;28;2002;-69
2022/07/30 01:08:41;;;;;;;;;;;;;;;17.38;100.00;95663.56;10410794;28;2039;-68
2022/07/30 01:13:46;;;;;;;;;;;;;;;17.32;100.00;95656.69;10406509;28;1913;-68
2022/07/30 01:24:11;;;;;;;;;;;;;;;17.26;100.00;95653.34;10409296;28;2231;-69
2022/07/30 01:29:19;;;;;;;;;;;;;;;17.24;100.00;95648.22;10410948;28;1942;-69
2022/07/30 01:34:28;;;;;;;;;;;;;;;17.18;100.00;95649.50;10402800;28;2021;-68
2022/07/30 01:39:52;;;;;;;;;;;;;;;17.16;100.00;95643.56;10429538;28;2131;-67
2022/07/30 01:45:16;;;;;;;;;;;;;;;17.08;100.00;95643.56;10411439;28;2064;-71
2022/07/30 01:50:20;;;;;;;;;;;;;;;17.20;100.00;95649.97;10410769;28;2352;-68
2022/07/30 01:55:24;;;;;;;;;;;;;;;17.06;100.00;95651.25;10421146;28;1998;-68
2022/07/30 02:00:29;;;;;;;;;;;;;;;17.16;100.00;95645.50;10412642;28;1978;-67
2022/07/30 02:05:34;;;;;;;;;;;;;;;17.04;100.00;95654.25;10403078;28;2362;-67
2022/07/30 02:10:38;;;;;;;;;;;;;;;16.93;100.00;95648.34;10411960;28;1985;-68
2022/07/30 02:15:42;;;;;;;;;;;;;;;16.99;100.00;95646.28;10410207;28;2004;-70
2022/07/30 02:20:45;;;;;;;;;;;;;;;16.95;100.00;95651.53;10413225;28;1908;-67
2022/07/30 02:25:52;;;;;;;;;;;;;;;16.84;100.00;95649.44;10410097;28;1992;-68
2022/07/30 02:30:56;;;;;;;;;;;;;;;16.70;100.00;95657.72;10415168;28;1961;-67
2022/07/30 02:36:00;;;;;;;;;;;;;;;16.66;100.00;95660.22;10409382;28;1850;-67
2022/07/30 02:41:04;;;;;;;;;;;;;;;16.57;100.00;95661.31;10406701;28;1953;-67
2022/07/30 02:46:12;;;;;;;;;;;;;;;16.46;100.00;95656.16;10406353;28;2051;-67
2022/07/30 02:51:16;;;;;;;;;;;;;;;16.36;100.00;95658.38;10409536;28;2005;-67
2022/07/30 02:56:19;;;;;;;;;;;;;;;16.38;100.00;95651.50;10402957;28;1957;-68
2022/07/30 03:01:23;;;;;;;;;;;;;;;16.46;100.00;95649.94;10407769;28;1990;-67
2022/07/30 03:06:26;;;;;;;;;;;;;;;16.60;100.00;95645.19;10408705;28;1963;-67
2022/07/30 03:11:29;;;;;;;;;;;;;;;16.77;100.00;95643.69;10405974;28;1943;-67
2022/07/30 03:16:33;;;;;;;;;;;;;;;16.75;100.00;95633.13;10404548;28;2021;-66
2022/07/30 03:21:39;;;;;;;;;;;;;;;16.77;100.00;95643.69;10416465;28;1979;-67
2022/07/30 03:26:42;;;;;;;;;;;;;;;16.77;100.00;95643.69;10411910;28;2074;-69
2022/07/30 03:31:47;;;;;;;;;;;;;;;16.78;100.00;95645.25;10407271;28;1922;-69
2022/07/30 03:36:50;;;;;;;;;;;;;;;16.69;100.00;95651.44;10410053;28;1989;-67
2022/07/30 03:41:55;;;;;;;;;;;;;;;16.75;100.00;95661.06;10403063;28;2103;-67
2022/07/30 03:47:00;;;;;;;;;;;;;;;16.70;100.00;95653.06;10402986;28;2006;-68
2022/07/30 03:52:04;;;;;;;;;;;;;;;16.66;100.00;95670.25;10404799;28;1952;-68
2022/07/30 03:57:08;;;;;;;;;;;;;;;16.55;100.00;95669.78;10419651;28;1915;-68
2022/07/30 04:02:11;;;;;;;;;;;;;;;16.56;100.00;95676.00;10406119;28;1973;-72
2022/07/30 04:07:15;;;;;;;;;;;;;;;16.52;100.00;95678.53;10413708;28;2051;-68
2022/07/30 04:12:18;;;;;;;;;;;;;;;16.53;100.00;95688.25;10414690;28;1942;-70
2022/07/30 04:17:23;;;;;;;;;;;;;;;16.65;100.00;95693.91;10414945;28;2013;-67
2022/07/30 04:22:27;;;;;;;;;;;;;;;16.71;100.00;95697.31;10410869;28;1977;-68
2022/07/30 04:27:30;;;;;;;;;;;;;;;16.77;100.00;95706.09;10415241;28;1978;-68
2022/07/30 04:32:34;;;;;;;;;;;;;;;16.94;100.00;95717.81;10413543;28;1991;-68
2022/07/30 04:37:38;;;;;;;;;;;;;;;17.07;100.00;95721.53;10413011;28;2064;-68
2022/07/30 04:42:41;;;;;;;;;;;;;;;17.21;100.00;95722.19;10412292;28;2052;-67
2022/07/30 04:47:46;;;;;;;;;;;;;;;17.40;100.00;95726.53;10416212;28;1997;-67
2022/07/30 04:52:49;;;;;;;;;;;;;;;17.48;100.00;95726.53;10417936;28;2016;-69
2022/07/30 04:57:52;;;;;;;;;;;;;;;17.62;100.00;95718.22;10415323;28;1997;-67
2022/07/30 05:02:56;;;;;;;;;;;;;;;17.83;100.00;95721.94;10414511;28;1947;-70
2022/07/30 05:07:59;;;;;;;;;;;;;;;18.03;100.00;95723.22;10417933;28;2007;-68
2022/07/30 05:13:05;;;;;;;;;;;;;;;18.13;100.00;95723.97;10414897;28;1937;-68
2022/07/30 05:18:11;;;;;;;;;;;;;;;18.32;100.00;95724.41;10400957;28;1996;-68
2022/07/30 05:23:17;;;;;;;;;;;;;;;17.99;100.00;95721.44;10409397;28;1990;-68
2022/07/30 05:28:21;;;;;;;;;;;;;;;18.13;100.00;95732.94;10408861;28;2017;-69
2022/07/30 05:33:24;;;;;;;;;;;;;;;18.32;100.00;95747.03;10414433;28;1934;-69
2022/07/30 05:38:44;;;;;;;;;;;;;;;18.72;100.00;95743.25;10405133;28;2012;-68
2022/07/30 05:43:49;;;;;;;;;;;;;;;18.73;100.00;95742.91;10404300;28;2132;-68
2022/07/30 05:48:59;;;;;;;;;;;;;;;18.82;100.00;95748.31;10404659;28;2103;-69
2022/07/30 05:54:03;;;;;;;;;;;;;;;18.68;100.00;95753.97;10416133;28;1990;-69
2022/07/30 05:59:06;;;;;;;;;;;;;;;18.69;100.00;95747.41;10408263;28;2069;-68
2022/07/30 06:04:10;;;;;;;;;;;;;;;18.78;100.00;95756.34;10409447;28;2050;-69
2022/07/30 06:09:13;;;;;;;;;;;;;;;18.88;99.91;95752.47;10404657;28;1942;-69
2022/07/30 06:14:17;;;;;;;;;;;;;;;19.09;99.43;95763.44;10413034;28;1955;-75
2022/07/30 06:19:21;;;;;;;;;;;;;;;19.23;98.32;95769.44;10401197;28;1999;-75
2022/07/30 06:24:24;;;;;;;;;;;;;;;19.57;95.31;95768.44;10408260;28;2345;-72
2022/07/30 06:29:31;;;;;;;;;;;;;;;19.56;95.15;95779.69;10409851;28;2445;-74
2022/07/30 06:34:34;;;;;;;;;;;;;;;19.38;99.58;95789.88;10402987;28;2000;-76
2022/07/30 06:39:38;;;;;;;;;;;;;;;18.20;100.00;95787.69;10399937;28;1877;-77
2022/07/30 06:45:01;;;;;;;;;;;;;;;18.06;100.00;95808.78;10405672;28;1953;-76
2022/07/30 06:50:04;;;;;;;;;;;;;;;17.99;100.00;95806.56;10405488;28;1926;-77
2022/07/30 06:55:07;;;;;;;;;;;;;;;17.94;100.00;95811.34;10401516;28;1918;-75
2022/07/30 07:00:14;;;;;;;;;;;;;;;18.03;100.00;95814.88;10406551;28;1961;-79
2022/07/30 07:05:20;;;;;;;;;;;;;;;18.93;100.00;95808.69;10399579;28;1985;-79
2022/07/30 07:10:23;;;;;;;;;;;;;;;19.19;99.67;95803.94;10404014;28;1949;-82
2022/07/30 07:15:27;;;;;;;;;;;;;;;19.48;99.49;95802.34;10410415;28;1925;-82
2022/07/30 07:20:42;;;;;;;;;;;;;;;19.67;94.79;95811.72;10405527;28;1910;-82
2022/07/30 07:25:46;;;;;;;;;;;;;;;20.70;89.97;95803.03;10414986;28;1951;-78
2022/07/30 07:30:49;;;;;;;;;;;;;;;20.92;89.99;95815.47;10413477;28;1953;-78
2022/07/30 07:35:54;;;;;;;;;;;;;;;21.36;83.46;95813.84;10414538;28;1938;-78
2022/07/30 07:40:57;;;;;;;;;;;;;;;21.73;82.05;95794.69;10412635;28;2105;-78
2022/07/30 07:46:00;;;;;;;;;;;;;;;21.33;83.29;95809.06;10415876;28;1999;-78
2022/07/30 07:51:04;;;;;;;;;;;;;;;21.41;81.37;95799.16;10420470;28;1916;-79
2022/07/30 07:56:12;;;;;;;;;;;;;;;21.14;83.40;95806.06;10421182;28;1980;-77
2022/07/30 08:01:16;;;;;;;;;;;;;;;21.59;81.61;95792.31;10419605;28;1967;-76
2022/07/30 08:06:20;;;;;;;;;;;;;;;21.86;78.26;95796.25;10420667;28;2051;-78
2022/07/30 08:11:23;;;;;;;;;;;;;;;21.69;78.73;95791.03;10420324;28;1893;-79
2022/07/30 08:16:26;;;;;;;;;;;;;;;22.46;75.64;95805.47;10415183;28;1985;-77
2022/07/30 08:21:30;;;;;;;;;;;22.80;99.90;;;22.25;74.53;95807.56;10411515;28;1818;-71
2022/07/30 08:26:33;;;;;;;;;;;;;;;22.45;71.33;95803.06;10414056;28;1932;-70
2022/07/30 08:31:36;;;;;;;;;;;;;;;22.23;69.05;95807.13;10416528;28;1972;-70
2022/07/30 08:36:40;;;;;;;;;;;;;;;21.73;74.99;95805.63;10409230;28;2046;-67
2022/07/30 08:41:43;;;;;;;;;;;;;;;22.47;70.17;95806.25;10409873;28;1933;-69
2022/07/30 08:46:47;;;;;;;;;;;;;;;23.02;67.57;95799.91;10429725;28;1922;-66
2022/07/30 08:51:50;;;;;;;;;;;;;;;23.04;64.62;95794.91;10409740;28;2036;-68
2022/07/30 08:56:57;;;;;;;;;;;;;;;23.68;61.85;95782.75;10413307;28;1963;-70
2022/07/30 09:02:00;;;;;;;;;;;;;;;24.09;59.59;95805.22;10407229;28;1923;-71
2022/07/30 09:07:05;;;;;;;;;;;;;;;24.40;56.63;95807.06;10403207;28;1939;-74
2022/07/30 09:12:10;;;;;;;;;;;;;;;24.08;55.31;95800.88;10402308;28;2655;-72
2022/07/30 09:17:13;;;;;;;;;;;;;;;23.42;57.02;95801.72;10405328;28;1958;-72
2022/07/30 09:22:17;;;;;;;;;;;;;;;24.47;54.97;95795.41;10410668;28;2011;-71
2022/07/30 09:27:20;;;;;;;;;;;;;;;24.81;51.65;95796.44;10407490;28;1989;-71
2022/07/30 09:32:24;;;;;;;;;;;;;;;23.70;54.75;95796.91;10408201;28;2034;-72
2022/07/30 09:37:27;;;;;;;;;;;;;;;23.77;54.01;95789.97;10403602;28;1957;-70
2022/07/30 09:42:31;;;;;;;;;;;;;;;24.14;54.00;95793.94;10410307;28;1918;-71
2022/07/30 09:47:34;;;;;;;;;;;;;;;23.96;51.78;95803.75;10409701;28;1914;-71
2022/07/30 09:52:39;;;;;;;;;;;;;;;24.17;51.64;95806.94;10404339;28;1909;-72
2022/07/30 09:57:46;;;;;;;;;;;;;;;23.98;51.34;95784.94;10405833;28;1993;-72
2022/07/30 10:02:52;;;;;;;;;;;;;;;24.08;50.46;95798.13;10415530;28;1920;-73
2022/07/30 10:07:56;;;;;;;;;;;;;;;24.57;49.29;95805.84;10408965;28;1989;-72
2022/07/30 10:13:00;;;;;;;;;;;;;;;23.72;48.33;95789.09;10406036;28;2132;-71
2022/07/30 10:18:06;;;;;;;;;;;;;;;23.63;47.55;95802.22;10407010;28;1990;-72
2022/07/30 10:23:10;;;;;;;;;;;;;;;24.27;44.80;95794.59;10409476;28;2088;-72
2022/07/30 10:28:18;;;;;;;;;;;;;;;24.01;47.09;95800.72;10405522;28;2338;-72
2022/07/30 10:33:21;;;;;;;;;;;;;;;23.82;44.41;95795.19;10411753;28;1967;-73
2022/07/30 10:38:39;;;;;;;;;;;;;;;24.83;43.54;95799.66;10412727;28;1950;-73
2022/07/30 10:43:45;;;;;;;;;;;;;;;24.93;41.47;95795.50;10416340;28;2027;-74
2022/07/30 10:48:50;;;;;;;;;;;;;;;24.79;39.27;95802.31;10415594;28;1908;-74
2022/07/30 10:53:55;;;;;;;;;;;;;;;25.00;42.66;95790.13;10411962;28;1961;-75
2022/07/30 10:58:58;;;;;;;;;;;;;;;25.94;38.91;95790.50;10411896;28;1927;-75
2022/07/30 11:04:05;;;;;;;;;;;;;;;26.81;37.12;95783.72;10404895;28;1968;-73
2022/07/30 11:09:08;;;;;;;;;;;;;;;26.46;36.57;95805.38;10409129;28;2022;-72
2022/07/30 11:14:13;;;;;;;;;;;;;;;26.90;36.19;95802.72;10395700;28;2029;-71
2022/07/30 11:19:22;;;;;;;;;;;;;;;26.47;36.27;95785.72;10401582;28;2052;-73
2022/07/30 11:24:46;;;;;;;;;;;;;;;26.46;37.29;95786.06;10414622;28;1985;-74
2022/07/30 11:29:51;;;;;;;;;;;;;;;25.90;38.85;95782.19;10409360;28;1995;-74
2022/07/30 11:34:57;;;;;;;;;;;;;;;26.07;37.90;95783.59;10413648;28;1967;-73
2022/07/30 11:40:01;;;;;;;;;;;;;;;26.25;38.48;95786.59;10413522;28;1952;-73
2022/07/30 11:45:04;;;;;;;;;;;;;;;25.87;38.84;95786.47;10410992;28;2015;-73
2022/07/30 11:50:07;;;;;;;;;;;;;;;25.56;38.58;95789.50;10407372;28;1898;-72
2022/07/30 11:55:11;;;;;;;;;;;;;;;25.28;38.97;95787.91;10398950;28;1960;-71
2022/07/30 12:00:17;;;;;;;;;;;;;;;25.55;38.97;95788.72;10405789;28;1994;-73
2022/07/30 12:05:20;;;;;;;;;;;;;;;25.58;38.02;95796.25;10426517;28;2021;-73
2022/07/30 12:10:24;;;;;;;;;;;;;;;25.69;39.14;95777.13;10409549;28;1945;-71
2022/07/30 12:15:29;;;;;;;;;;;;;;;25.97;38.20;95782.28;10407302;28;1957;-73
2022/07/30 12:20:33;;;;;;;;;;;;;;;25.81;36.11;95776.94;10410099;28;1924;-73
2022/07/30 12:25:37;;;;;;;;;;;;;;;25.43;37.02;95788.13;10408487;28;1958;-72
2022/07/30 12:30:49;;;;;;;;;;;;;;;25.14;36.10;95781.38;10408012;28;2022;-73
2022/07/30 12:35:53;;;;;;;;;;;;;;;24.33;36.48;95773.13;10409761;28;2020;-73
2022/07/30 12:40:58;;;;;;;;;;;;;;;24.56;35.30;95782.28;10411853;28;1988;-72
2022/07/30 12:46:01;;;;;;;;;;;;;;;24.75;34.43;95779.50;10403519;28;2061;-72
2022/07/30 12:51:06;;;;;;;;;;;;;;;25.08;34.58;95791.09;10408289;28;2114;-74
2022/07/30 12:56:10;;;;;;;;;;;;;;;24.98;34.50;95779.50;10407934;28;2132;-74
2022/07/30 13:01:14;;;;;;;;;;;;;;;25.54;33.40;95778.09;10415650;28;2329;-75
2022/07/30 13:06:17;;;;;;;;;;;;;;;25.68;33.80;95761.78;10411364;28;2059;-74
2022/07/30 13:11:22;;;;;;;;;;;;;;;25.96;32.84;95779.88;10406690;28;2297;-69
2022/07/30 13:16:26;;;;;;;;;;;;;;;25.90;32.88;95781.41;10411987;28;2008;-70
2022/07/30 13:21:30;;;;;;;;;;;;;;;26.18;32.44;95770.75;10412253;28;2045;-70
2022/07/30 13:26:35;;;;;;;;;;;;;;;26.66;31.79;95768.22;10407823;28;1970;-71
2022/07/30 13:31:40;;;;;;;;;;;;;;;26.50;32.11;95765.66;10407986;28;1921;-70
2022/07/30 13:36:47;;;;;;;;;;;;;;;26.63;32.29;95766.19;10406566;28;1937;-70
2022/07/30 13:41:51;;;;;;;;;;;;;;;26.78;32.32;95769.88;10407622;28;1980;-70
2022/07/30 13:46:55;;;;;;;;;;;;;;;26.10;32.33;95774.59;10406683;28;1977;-70
2022/07/30 13:52:03;;;;;;;;;;;;;;;26.28;32.90;95752.78;10415572;28;2072;-69
2022/07/30 13:57:07;;;;;;;;;;;;;;;26.12;32.35;95761.22;10405565;28;1846;-70
2022/07/30 14:02:11;;;;;;;;;;;;;;;25.74;33.09;95751.28;10406022;28;1993;-71
2022/07/30 14:07:14;;;;;;;;;;;;;;;25.58;33.22;95746.72;10404899;28;2060;-71
2022/07/30 14:12:18;;;;;;;;;;;;;;;25.26;33.47;95765.47;10411989;28;1948;-70
2022/07/30 14:17:22;;;;;;;;;;;;;;;24.92;34.36;95755.41;10420339;28;1881;-70
2022/07/30 14:22:26;;;;;;;;;;;;;;;24.69;35.00;95747.19;10410976;28;1960;-70
2022/07/30 14:27:30;;;;;;;;;;;;;;;24.47;35.64;95754.22;10417839;28;1999;-72
2022/07/30 14:32:33;;;;;;;;;;;;;;;24.53;35.71;95744.50;10407817;28;2000;-70
2022/07/30 14:37:38;;;;;;;;;;;;;;;24.59;35.67;95740.31;10404815;28;1909;-70
2022/07/30 14:42:42;;;;;;;;;;;;;;;25.31;33.99;95734.88;10415863;28;1960;-69
2022/07/30 14:47:46;;;;;;;;;;;;;;;25.37;32.76;95732.59;10402109;28;1967;-69
2022/07/30 14:52:51;;;;;;;;;;;;;;;25.78;31.51;95730.09;10403544;28;1930;-70
2022/07/30 14:57:55;;;;;;;;;;;;;;;26.37;32.13;95721.00;10408834;28;1888;-68
2022/07/30 15:02:59;;;;;;;;;;;;;;;26.38;31.38;95725.31;10408715;28;1844;-69
2022/07/30 15:08:03;;;;;;;;;;;;;;;26.45;31.48;95718.34;10409231;28;1910;-70
2022/07/30 15:13:06;;;;;;;;;;;;;;;26.75;30.77;95719.06;10410289;28;3789;-70
2022/07/30 15:18:10;;;;;;;;;;;;;;;26.18;31.61;95726.69;10405191;28;1815;-70
2022/07/30 15:23:14;;;;;;;;;;;;;;;26.18;31.83;95737.69;10400649;28;1786;-71
2022/07/30 15:28:18;;;;;;;;;;;;;;;25.75;32.70;95731.63;10412375;28;2001;-69
2022/07/30 15:33:21;;;;;;;;;;;;;;;25.39;32.66;95735.00;10402936;28;1885;-72
2022/07/30 15:38:26;;;;;;;;;;;;;;;25.24;32.90;95737.53;10407779;28;1777;-71
2022/07/30 15:43:29;;;;;;;;;;;;;;;25.72;32.61;95728.81;10401469;28;1774;-70
2022/07/30 15:48:33;;;;;;;;;;;;;;;26.24;31.83;95727.13;10405849;28;1914;-71
2022/07/30 15:53:37;;;;;;;;;;;;;;;26.18;31.65;95714.88;10402179;28;2019;-71
2022/07/30 15:58:40;;;;;;;;;;;;;;;26.42;31.00;95714.38;10406341;28;1856;-70
2022/07/30 16:03:45;;;;;;;;;;;;;;;26.48;31.34;95715.63;10412642;28;1869;-70
2022/07/30 16:08:49;;;;;;;;;;;;;;;26.44;30.16;95714.78;10420200;28;1942;-71
2022/07/30 16:13:52;;;;;;;;;;;;;;;26.33;30.23;95716.59;10414578;28;1804;-71
2022/07/30 16:18:56;;;;;;;;;;;;;;;26.30;30.34;95717.38;10412704;28;1968;-70
2022/07/30 16:23:59;;;;;;;;;;;;;;;26.33;31.07;95717.41;10416235;28;1773;-70
2022/07/30 16:29:02;;;;;;;;;;;;;;;26.32;30.83;95729.59;10418036;28;1914;-70
2022/07/30 16:34:06;;;;;;;;;;;;;;;25.98;31.84;95722.50;10415238;28;1820;-72
2022/07/30 16:39:10;;;;;;;;;;;;;;;25.66;32.23;95728.34;10409805;28;1810;-70
2022/07/30 16:44:14;;;;;;;;;;;;;;;25.56;32.64;95728.97;10416005;28;1830;-70
2022/07/30 16:49:19;;;;;;;;;;;;;;;24.95;33.37;95728.00;10413244;28;1918;-73
2022/07/30 16:54:23;;;;;;;;;;;;;;;25.05;34.02;95727.38;10412648;28;1871;-69
2022/07/30 16:59:28;;;;;;;;;;;;;;;25.13;33.76;95725.56;10414579;28;1746;-71
2022/07/30 17:04:33;;;;;;;;;;;;;;;24.72;34.00;95724.44;10411287;28;1871;-69
2022/07/30 17:09:37;;;;;;;;;;;;;;;24.43;34.86;95743.16;10414077;28;1979;-70
2022/07/30 17:14:41;;;;;;;;;;;;;;;24.30;35.43;95746.38;10414950;28;1861;-70
2022/07/30 17:19:44;;;;;;;;;;;;;;;23.64;37.22;95757.16;10413847;28;1854;-70
2022/07/30 17:24:48;;;;;;;;;;;;;;;23.56;37.99;95762.84;10412696;28;1839;-72
2022/07/30 17:29:52;;;;;;;;;;;;;;;23.32;38.58;95759.13;10405508;28;1914;-69
2022/07/30 17:34:56;;;;;;;;;;;;;;;23.30;38.81;95764.19;10427046;28;1848;-71
2022/07/30 17:39:59;;;;;;;;;;;;;;;23.36;38.73;95756.50;10408640;28;1827;-70
2022/07/30 17:45:24;;;;;;;;;;;;;;;23.51;39.04;95766.63;10408763;28;1914;-70
2022/07/30 17:50:27;;;;;;;;;;;;;;;23.56;38.81;95768.31;10407087;28;1903;-69
2022/07/30 17:55:33;;;;;;;;;;;;;;;23.30;39.91;95777.13;10413461;28;1831;-70
2022/07/30 18:00:37;;;;;;;;;;;;;;;23.23;40.53;95780.47;10403369;28;1773;-68
2022/07/30 18:05:41;;;;;;;;;;;;;;;23.11;39.95;95778.63;10410135;28;1969;-69
2022/07/30 18:10:44;;;;;;;;;;;;;;;23.04;39.76;95778.44;10411979;28;1848;-69
2022/07/30 18:15:48;;;;;;;;;;;;;;;22.77;43.29;95782.78;10411982;28;1960;-71
2022/07/30 18:20:52;;;;;;;;;;;;;;;22.48;42.58;95786.72;10409353;28;1758;-70
2022/07/30 18:25:55;;;;;;;;;;;;;;;22.35;43.06;95790.66;10414636;28;1914;-70
2022/07/30 18:30:59;;;;;;;;;;;;;;;22.37;51.17;95799.31;10406039;28;1894;-70
2022/07/30 18:36:03;;;;;;;;;;;;;;;20.48;73.66;95794.06;10405990;28;1832;-72
2022/07/30 18:41:07;;;;;;;;;;;;;;;19.80;75.21;95820.78;10407052;28;2030;-70
2022/07/30 18:46:11;;;;;;;;;;;;;;;19.63;78.38;95835.31;10408498;28;1996;-71
2022/07/30 18:51:14;;;;;;;;;;;;;;;19.53;81.86;95848.50;10411088;28;2051;-69
2022/07/30 18:56:19;;;;;;;;;;;;;;;19.43;81.13;95845.03;10406898;28;1803;-71
2022/07/30 19:01:22;;;;;;;;;;;;;;;19.39;79.19;95846.00;10405531;28;1829;-74
2022/07/30 19:06:26;;;;;;;;;;;;;;;19.38;80.31;95847.13;10406744;28;1956;-70
2022/07/30 19:11:29;;;;;;;;;;;;;;;19.42;78.87;95848.88;10424453;28;1841;-69
2022/07/30 19:16:33;;;;;;;;;;;;;;;19.47;80.35;95855.25;10407044;28;1884;-70
2022/07/30 19:21:38;;;;;;;;;;;;;;;19.57;80.40;95844.78;10409423;28;1813;-69
2022/07/30 19:26:41;;;;;;;;;;;;;;;19.21;89.34;95858.88;10400669;28;1922;-70
2022/07/30 19:31:45;;;;;;;;;;;;;;;18.93;91.36;95853.06;10406788;28;1925;-70
2022/07/30 19:36:48;;;;;;;;;;;;;;;18.84;91.38;95860.47;10403072;28;1886;-71
2022/07/30 19:41:53;;;;;;;;;;;;;;;18.86;90.58;95863.66;10401204;28;1946;-68
2022/07/30 19:46:58;;;;;;;;;;;;;;;18.97;91.41;95872.28;10402987;28;1977;-72
2022/07/30 19:52:02;;;;;;;;;;;;;;;19.10;89.67;95865.84;10408964;28;1953;-70
2022/07/30 19:57:25;;;;;;;;;;;;;;;19.29;89.00;95882.59;10402631;28;1941;-67
2022/07/30 20:02:49;;;;;;;;;;;;;;;19.92;83.14;95867.25;10406411;28;2159;-68
2022/07/30 20:07:52;;;;;;;;;;;;;;;20.00;81.79;95873.75;10410525;28;1902;-68
2022/07/30 20:12:58;;;;;;;;;;;;;;;19.89;85.13;95878.78;10408867;28;1852;-70
2022/07/30 20:18:01;;;;;;;;;;;;;;;20.15;81.11;95886.00;10412035;28;1815;-71
2022/07/30 20:23:05;;;;;;;;;;;;;;;20.10;82.05;95881.53;10412658;28;1879;-69
2022/07/30 20:28:08;;;;;;;;;;;;;;;20.33;80.86;95876.56;10413605;28;1906;-70
2022/07/30 20:33:12;;;;;;;;;;;;;;;20.31;82.97;95883.50;10412119;28;1884;-73
2022/07/30 20:38:15;;;;;;;;;;;;;;;20.26;84.08;95876.31;10412944;28;1805;-69
2022/07/30 20:43:19;;;;;;;;;;;;;;;20.44;84.02;95876.97;10408098;28;1810;-69
2022/07/30 20:48:24;;;;;;;;;;;;;;;20.44;84.75;95880.50;10410143;28;1981;-70
2022/07/30 20:53:28;;;;;;;;;;;;;;;20.22;86.10;95895.25;10418072;28;1947;-69
2022/07/30 20:58:38;;;;;;;;;;;;;;;20.18;87.18;95888.91;10415292;28;1852;-70
2022/07/30 21:03:43;;;;;;;;;;;;;;;20.12;87.46;95897.59;10416373;28;1848;-71
2022/07/30 21:08:51;;;;;;;;;;;;;;;20.14;87.41;95896.13;10411194;28;1910;-70
2022/07/30 21:13:54;;;;;;;;;;;;;;;19.88;89.12;95887.31;10416710;28;1856;-69
2022/07/30 21:18:57;;;;;;;;;;;;;;;19.89;89.13;95894.38;10407849;28;1845;-70
2022/07/30 21:24:01;;;;;;;;;;;;;;;19.11;94.63;95914.56;10412117;28;1814;-68
2022/07/30 21:29:06;;;;;;;;;;;;;;;18.73;95.83;95919.91;10411531;28;1914;-71
2022/07/30 21:34:10;;;;;;;;;;;;;;;18.56;97.56;95914.44;10413579;28;1814;-70
2022/07/30 21:39:13;;;;;;;;;;;;;;;18.37;98.11;95912.81;10414222;28;1851;-69
2022/07/30 21:44:17;;;;;;;;;;;;;;;18.50;98.68;95913.00;10434827;28;1842;-70
2022/07/30 21:49:20;;;;;;;;;;;;;;;18.24;99.55;95923.88;10408019;28;1989;-69
2022/07/30 21:54:24;;;;;;;;;;;;;;;18.10;100.00;95916.66;10414095;28;1821;-69
2022/07/30 21:59:32;;;;;;;;;;;;;;;18.01;100.00;95923.22;10417347;28;1832;-77
2022/07/30 22:04:35;;;;;;;;;;;;;;;18.11;100.00;95917.44;10402099;28;1874;-71
2022/07/30 22:09:40;;;;;;;;;;;;;;;18.88;96.18;95922.13;10414186;28;1983;-69
2022/07/30 22:14:43;;;;;;;;;;;;;;;18.71;97.52;95921.38;10409114;28;1743;-69
2022/07/30 22:19:49;;;;;;;;;;;;;;;18.95;97.16;95921.63;10409859;28;1769;-68
2022/07/30 22:24:53;;;;;;;;;;;;;;;18.94;96.62;95922.75;10407052;28;1858;-68
2022/07/30 22:29:59;;;;;;;;;;;;;;;19.39;94.11;95920.38;10410661;28;1906;-69
2022/07/30 22:35:03;;;;;;;;;;;;;;;19.00;96.24;95916.00;10418606;28;1844;-69
2022/07/30 22:40:06;;;;;;;;;;;;;;;19.30;94.44;95913.38;10410774;28;1910;-69
2022/07/30 22:45:10;;;;;;;;;;;;;;;19.48;92.84;95903.22;10408744;28;1790;-69
2022/07/30 22:50:15;;;;;;;;;;;;;;;19.37;92.58;95909.03;10406456;28;1914;-69
2022/07/30 22:55:26;;;;;;;;;;;;;;;19.25;93.31;95906.19;10410181;28;1845;-69
2022/07/30 23:00:31;;;;;;;;;;;;;;;19.36;92.25;95910.16;10410552;28;1834;-69
2022/07/30 23:05:35;;;;;;;;;;;;;;;19.16;92.08;95908.94;10407947;28;1890;-73
2022/07/30 23:10:42;;;;;;;;;;;;;;;18.59;94.73;95916.53;10409446;28;2015;-72
2022/07/30 23:15:46;;;;;;;;;;;;;;;18.45;96.88;95907.69;10413150;28;2013;-71
2022/07/30 23:20:50;;;;;;;;;;;;;;;19.18;92.01;95914.06;10405900;28;1905;-70
2022/07/30 23:25:54;;;;;;;;;;;;;;;18.81;92.83;95905.47;10410887;28;1806;-70
2022/07/30 23:30:58;;;;;;;;;;;;;;;18.52;93.91;95910.78;10404369;28;1914;-69
2022/07/30 23:36:03;;;;;;;;;;;;;;;18.18;96.87;95916.97;10410203;28;1832;-69
2022/07/30 23:41:07;;;;;;;;;;;;;;;17.96;97.11;95920.63;10411015;28;1781;-70
2022/07/30 23:46:10;;;;;;;;;;;;;;;17.69;99.59;95903.44;10404275;28;1854;-70
2022/07/30 23:51:13;;;;;;;;;;;;;;;17.52;100.00;95909.59;10399887;28;1914;-69
2022/07/30 23:56:17;;;;;;;;;;;;;;;17.44;100.00;95918.53;10403270;28;1864;-67
